Time;durP1;ratioP1;P1;durP2;ratioP2;P2;SDS_P1;SDS_P2;PMS_P1;PMS_P2;Temp;Humidity;BMP_temperature;BMP_pressure;BME280_temperature;BME280_humidity;BME280_pressure;Samples;Min_cycle;Max_cycle;Signal;HPM_P1;HPM_P2
2023/08/05 00:00:06;;;;;;;7.20;2.97;;;15.80;99.90;;;;;;5132898;27;21826;-84
2023/08/05 00:02:32;;;;;;;6.50;2.90;;;15.70;99.90;;;;;;5138611;27;20047;-84
2023/08/05 00:04:57;;;;;;;6.53;3.20;;;15.70;99.90;;;;;;5132950;27;20035;-85
2023/08/05 00:07:23;;;;;;;8.88;3.60;;;15.70;99.90;;;;;;5115069;27;20043;-84
2023/08/05 00:09:48;;;;;;;7.55;2.67;;;15.70;99.90;;;;;;5116084;27;20034;-84
2023/08/05 00:12:14;;;;;;;5.82;3.13;;;15.70;99.90;;;;;;5117966;27;20037;-84
2023/08/05 00:14:40;;;;;;;7.13;3.50;;;15.70;99.90;;;;;;5117041;27;20171;-84
2023/08/05 00:17:05;;;;;;;8.23;3.50;;;15.60;99.90;;;;;;5114507;27;20043;-85
2023/08/05 00:19:31;;;;;;;10.10;4.20;;;15.70;99.90;;;;;;5133015;27;20516;-85
2023/08/05 00:21:56;;;;;;;6.78;3.17;;;15.60;99.90;;;;;;5129655;27;20043;-84
2023/08/05 00:24:22;;;;;;;6.55;3.22;;;15.60;99.90;;;;;;5116227;27;20031;-84
2023/08/05 00:26:48;;;;;;;8.35;3.03;;;15.60;99.90;;;;;;5112385;27;20039;-84
2023/08/05 00:29:14;;;;;;;4.97;2.88;;;15.70;99.90;;;;;;5133865;27;20031;-84
2023/08/05 00:31:39;;;;;;;6.97;2.83;;;15.60;99.90;;;;;;5114031;27;20041;-85
2023/08/05 00:34:05;;;;;;;9.00;3.47;;;15.60;99.90;;;;;;5111238;27;20043;-84
2023/08/05 00:36:30;;;;;;;6.10;3.42;;;15.70;99.90;;;;;;5132875;27;20579;-84
2023/08/05 00:38:56;;;;;;;8.05;3.08;;;15.70;99.90;;;;;;5131200;27;20544;-84
2023/08/05 00:41:22;;;;;;;5.38;2.72;;;15.70;99.90;;;;;;5132107;27;20035;-84
2023/08/05 00:43:47;;;;;;;8.48;3.08;;;15.70;99.90;;;;;;5126868;27;20108;-85
2023/08/05 00:46:13;;;;;;;7.72;3.78;;;15.60;99.90;;;;;;5131529;27;20383;-85
2023/08/05 00:48:40;;;;;;;6.20;3.30;;;15.70;99.90;;;;;;5126818;27;20081;-85
2023/08/05 00:51:07;;;;;;;5.80;3.10;;;15.70;99.90;;;;;;5113944;27;20043;-85
2023/08/05 00:53:35;;;;;;;7.47;3.03;;;15.70;99.90;;;;;;5115394;27;20034;-84
2023/08/05 00:56:02;;;;;;;6.85;3.53;;;15.70;99.90;;;;;;5114995;27;20077;-85
2023/08/05 00:58:31;;;;;;;7.60;3.33;;;15.70;99.90;;;;;;5132574;27;20043;-85
2023/08/05 01:00:57;;;;;;;6.68;3.03;;;15.70;99.90;;;;;;5132568;27;20061;-85
2023/08/05 01:03:23;;;;;;;9.35;3.47;;;15.80;99.90;;;;;;5133820;27;20043;-85
2023/08/05 01:05:50;;;;;;;5.55;3.30;;;15.70;99.90;;;;;;5114180;27;20364;-84
2023/08/05 01:08:17;;;;;;;8.13;3.22;;;15.70;99.90;;;;;;5113203;27;20075;-85
2023/08/05 01:10:43;;;;;;;7.55;3.47;;;15.70;99.90;;;;;;5131836;27;20047;-85
2023/08/05 01:13:09;;;;;;;6.45;3.53;;;15.60;99.90;;;;;;5096546;27;20397;-84
2023/08/05 01:15:35;;;;;;;7.55;3.65;;;15.60;99.90;;;;;;5117506;27;20046;-84
2023/08/05 01:18:03;;;;;;;8.20;3.20;;;15.60;99.90;;;;;;5134713;27;20050;-84
2023/08/05 01:20:34;;;;;;;7.00;3.72;;;15.60;99.90;;;;;;5113157;27;20130;-84
2023/08/05 01:23:24;;;;;;;11.05;3.28;;;15.50;99.90;;;;;;5117322;27;20038;-85
2023/08/05 01:25:51;;;;;;;8.73;3.00;;;15.50;99.90;;;;;;5057523;27;20039;-84
2023/08/05 01:28:18;;;;;;;7.55;3.20;;;15.50;99.90;;;;;;5105285;27;20031;-84
2023/08/05 01:30:45;;;;;;;7.97;3.22;;;15.30;99.90;;;;;;5113383;27;20099;-84
2023/08/05 01:33:14;;;;;;;8.43;3.40;;;15.30;99.90;;;;;;5133678;27;20099;-84
2023/08/05 01:35:40;;;;;;;6.32;2.75;;;15.20;99.90;;;;;;5105827;27;20054;-85
2023/08/05 01:38:05;;;;;;;8.98;3.33;;;15.20;99.90;;;;;;5133918;27;20767;-85
2023/08/05 01:40:32;;;;;;;8.07;3.00;;;15.20;99.90;;;;;;5112495;27;20067;-84
2023/08/05 01:42:58;;;;;;;7.35;3.10;;;15.30;99.90;;;;;;5118040;27;20042;-84
2023/08/05 01:45:25;;;;;;;5.07;2.78;;;15.20;99.90;;;;;;5113146;27;20031;-84
2023/08/05 01:47:50;;;;;;;6.78;3.40;;;15.30;99.90;;;;;;5115539;27;20114;-84
2023/08/05 01:50:16;;;;;;;6.78;2.85;;;15.30;99.90;;;;;;5130877;27;20106;-85
2023/08/05 01:52:42;;;;;;;6.28;2.80;;;15.30;99.90;;;;;;5117607;27;20042;-84
2023/08/05 01:55:07;;;;;;;9.52;3.58;;;15.30;99.90;;;;;;5096436;27;20080;-85
2023/08/05 01:57:33;;;;;;;9.27;3.55;;;15.30;99.90;;;;;;5095786;27;20486;-85
2023/08/05 01:59:59;;;;;;;8.05;3.22;;;15.30;99.90;;;;;;5112482;27;20046;-85
2023/08/05 02:02:24;;;;;;;7.03;3.30;;;15.30;99.90;;;;;;5130897;27;20077;-85
2023/08/05 02:04:50;;;;;;;6.90;2.97;;;15.30;99.90;;;;;;5114758;27;21719;-85
2023/08/05 02:07:15;;;;;;;6.57;2.90;;;15.30;99.90;;;;;;5095521;27;20075;-84
2023/08/05 02:09:41;;;;;;;11.80;3.67;;;15.20;99.90;;;;;;5130547;27;20046;-85
2023/08/05 02:12:06;;;;;;;6.72;3.15;;;15.20;99.90;;;;;;5133406;27;20031;-85
2023/08/05 02:14:32;;;;;;;5.57;2.72;;;15.20;99.90;;;;;;5109443;27;20039;-84
2023/08/05 02:16:58;;;;;;;8.02;3.15;;;15.20;99.90;;;;;;5101437;27;20062;-85
2023/08/05 02:19:24;;;;;;;6.38;3.15;;;15.20;99.90;;;;;;5130873;27;20039;-84
2023/08/05 02:21:49;;;;;;;5.43;3.15;;;15.10;99.90;;;;;;5115296;27;20396;-84
2023/08/05 02:24:15;;;;;;;12.80;3.53;;;15.20;99.90;;;;;;5105139;27;20035;-84
2023/08/05 02:26:41;;;;;;;7.60;3.40;;;15.00;99.90;;;;;;5112288;27;20043;-84
2023/08/05 02:29:07;;;;;;;6.22;3.10;;;15.00;99.90;;;;;;5111827;27;20050;-84
2023/08/05 02:31:33;;;;;;;7.07;3.03;;;14.90;99.90;;;;;;5113119;27;20039;-84
2023/08/05 02:33:59;;;;;;;10.40;3.40;;;14.90;99.90;;;;;;5112669;27;20045;-84
2023/08/05 02:36:24;;;;;;;7.95;3.58;;;14.90;99.90;;;;;;5115382;27;20466;-85
2023/08/05 02:38:50;;;;;;;8.15;3.80;;;14.80;99.90;;;;;;5111963;27;20043;-85
2023/08/05 02:41:15;;;;;;;5.20;3.15;;;14.80;99.90;;;;;;5111425;27;20134;-85
2023/08/05 02:43:41;;;;;;;9.80;2.88;;;14.80;99.90;;;;;;5115859;27;20122;-84
2023/08/05 02:46:07;;;;;;;7.55;3.13;;;14.70;99.90;;;;;;5101619;27;20043;-84
2023/08/05 02:48:33;;;;;;;6.68;2.72;;;14.80;99.90;;;;;;5112146;27;20035;-85
2023/08/05 02:50:59;;;;;;;5.22;2.88;;;14.70;99.90;;;;;;5110588;27;20050;-85
2023/08/05 02:53:25;;;;;;;7.18;3.20;;;14.70;99.90;;;;;;5140393;27;20037;-85
2023/08/05 02:55:50;;;;;;;7.30;3.38;;;14.70;99.90;;;;;;5130243;27;20038;-85
2023/08/05 02:58:19;;;;;;;7.70;3.20;;;14.70;99.90;;;;;;5111424;27;20050;-85
2023/08/05 03:00:46;;;;;;;6.70;3.42;;;14.70;99.90;;;;;;5111928;27;20042;-84
2023/08/05 03:03:12;;;;;;;6.25;3.47;;;14.60;99.90;;;;;;5112495;27;20047;-85
2023/08/05 03:05:38;;;;;;;5.05;3.05;;;14.60;99.90;;;;;;5095968;27;20067;-84
2023/08/05 03:08:04;;;;;;;5.78;2.92;;;14.60;99.90;;;;;;5111966;27;20062;-84
2023/08/05 03:10:29;;;;;;;7.82;3.25;;;14.80;99.90;;;;;;5106555;28;20131;-85
2023/08/05 03:12:55;;;;;;;6.07;2.80;;;14.70;99.90;;;;;;5135804;27;20031;-85
2023/08/05 03:15:21;;;;;;;10.82;3.72;;;14.40;99.90;;;;;;5094863;27;20047;-85
2023/08/05 03:17:46;;;;;;;8.75;3.60;;;14.40;99.90;;;;;;5130119;27;20080;-85
2023/08/05 03:20:30;;;;;;;6.35;3.00;;;14.40;99.90;;;;;;5129148;27;20531;-85
2023/08/05 03:22:56;;;;;;;11.73;3.47;;;14.30;99.90;;;;;;5132913;27;20043;-85
2023/08/05 03:25:23;;;;;;;7.47;3.63;;;14.30;99.90;;;;;;5131925;27;20035;-85
2023/08/05 03:27:50;;;;;;;9.82;3.92;;;14.30;99.90;;;;;;5129574;27;20023;-85
2023/08/05 03:30:16;;;;;;;8.70;3.55;;;14.30;99.90;;;;;;5111417;27;20028;-85
2023/08/05 03:32:42;;;;;;;9.43;3.40;;;14.20;99.90;;;;;;5135433;27;20119;-85
2023/08/05 03:35:08;;;;;;;7.80;3.53;;;14.10;99.90;;;;;;5110372;27;20031;-84
2023/08/05 03:37:33;;;;;;;5.78;2.92;;;14.20;99.90;;;;;;5111637;28;20051;-85
2023/08/05 03:39:59;;;;;;;6.85;2.75;;;14.20;99.90;;;;;;5129373;27;20027;-84
2023/08/05 03:42:25;;;;;;;7.65;3.20;;;14.20;99.90;;;;;;5129884;27;20492;-84
2023/08/05 03:44:51;;;;;;;7.78;3.75;;;14.20;99.90;;;;;;5093989;28;20126;-85
2023/08/05 03:47:16;;;;;;;6.63;3.60;;;14.20;99.90;;;;;;5110673;27;20134;-84
2023/08/05 03:49:42;;;;;;;8.05;3.42;;;14.10;99.90;;;;;;5129172;27;20027;-85
2023/08/05 03:52:09;;;;;;;6.85;3.53;;;14.20;99.90;;;;;;5131131;27;20114;-85
2023/08/05 03:54:34;;;;;;;6.28;3.45;;;14.10;99.90;;;;;;5129737;27;20035;-85
2023/08/05 03:57:02;;;;;;;7.00;3.63;;;14.10;99.90;;;;;;5116052;27;20069;-85
2023/08/05 03:59:28;;;;;;;5.88;3.20;;;14.10;99.90;;;;;;5111137;28;20035;-85
2023/08/05 04:01:54;;;;;;;5.55;2.80;;;14.30;99.90;;;;;;5109447;27;20063;-85
2023/08/05 04:04:19;;;;;;;5.55;3.30;;;14.10;99.90;;;;;;5110660;28;20077;-85
2023/08/05 04:06:45;;;;;;;6.32;3.35;;;14.20;99.90;;;;;;5129473;27;20477;-85
2023/08/05 04:09:12;;;;;;;6.20;3.22;;;14.20;99.90;;;;;;5129288;27;20123;-85
2023/08/05 04:11:38;;;;;;;6.20;3.40;;;14.20;99.90;;;;;;5113927;27;20110;-85
2023/08/05 04:14:07;;;;;;;7.85;3.45;;;14.30;99.90;;;;;;5129978;27;20046;-84
2023/08/05 04:16:34;;;;;;;8.93;3.35;;;14.30;99.90;;;;;;5133643;27;20035;-84
2023/08/05 04:19:00;;;;;;;9.00;3.47;;;14.30;99.90;;;;;;5134600;27;20031;-85
2023/08/05 04:21:30;;;;;;;7.78;3.42;;;14.30;99.90;;;;;;5119695;27;20043;-85
2023/08/05 04:23:55;;;;;;;5.60;3.22;;;14.30;99.90;;;;;;5114283;27;20529;-85
2023/08/05 04:26:21;;;;;;;10.70;3.53;;;14.40;99.90;;;;;;5120739;27;20184;-85
2023/08/05 04:28:47;;;;;;;8.73;3.22;;;14.40;99.90;;;;;;5133096;27;20027;-85
2023/08/05 04:31:14;;;;;;;8.65;3.60;;;14.40;99.90;;;;;;5102286;27;20042;-85
2023/08/05 04:33:39;;;;;;;7.22;3.22;;;14.50;99.90;;;;;;5135390;27;20046;-85
2023/08/05 04:36:05;;;;;;;6.28;3.00;;;14.40;99.90;;;;;;5099404;27;20043;-84
2023/08/05 04:38:30;;;;;;;5.55;3.25;;;14.40;99.90;;;;;;5132554;27;20085;-84
2023/08/05 04:40:57;;;;;;;8.13;3.40;;;14.40;99.90;;;;;;5115299;27;20043;-84
2023/08/05 04:43:23;;;;;;;8.75;3.45;;;14.70;99.90;;;;;;5138716;27;20035;-84
2023/08/05 04:45:50;;;;;;;7.55;3.60;;;14.50;99.90;;;;;;5132585;27;20443;-84
2023/08/05 04:48:17;;;;;;;7.97;3.85;;;14.50;99.90;;;;;;5114029;27;20035;-85
2023/08/05 04:50:43;;;;;;;9.38;3.90;;;14.50;99.90;;;;;;5135408;27;20035;-84
2023/08/05 04:53:09;;;;;;;8.50;3.75;;;14.60;99.90;;;;;;5114641;27;20042;-84
2023/08/05 04:55:34;;;;;;;10.13;3.65;;;14.50;99.90;;;;;;5098486;27;20050;-84
2023/08/05 04:58:01;;;;;;;5.75;3.25;;;14.50;99.90;;;;;;5118311;27;20045;-84
2023/08/05 05:00:27;;;;;;;7.18;3.35;;;14.60;99.90;;;;;;5131694;27;20118;-84
2023/08/05 05:02:53;;;;;;;7.53;3.65;;;14.60;99.90;;;;;;5135267;27;20058;-84
2023/08/05 05:05:19;;;;;;;8.30;3.78;;;14.60;99.90;;;;;;5103451;27;20051;-84
2023/08/05 05:07:44;;;;;;;8.38;3.83;;;14.60;99.90;;;;;;5113547;27;20042;-84
2023/08/05 05:10:10;;;;;;;5.38;2.95;;;14.70;99.90;;;;;;5117301;27;20405;-84
2023/08/05 05:12:36;;;;;;;8.07;4.03;;;14.60;99.90;;;;;;5108643;27;20041;-84
2023/08/05 05:15:01;;;;;;;8.27;3.75;;;14.60;99.90;;;;;;5125039;27;20370;-84
2023/08/05 05:17:33;;;;;;;6.85;3.35;;;14.60;99.90;;;;;;5131731;27;20046;-84
2023/08/05 05:19:58;;;;;;;8.05;3.40;;;14.90;99.90;;;;;;5137116;27;20038;-85
2023/08/05 05:22:24;;;;;;;9.25;3.47;;;14.80;99.90;;;;;;5115017;27;20113;-85
2023/08/05 05:24:50;;;;;;;6.90;3.33;;;14.70;99.90;;;;;;5113360;27;20130;-85
2023/08/05 05:27:17;;;;;;;11.30;4.55;;;14.70;99.90;;;;;;5095887;27;20457;-85
2023/08/05 05:29:44;;;;;;;5.10;2.55;;;14.70;99.90;;;;;;5131298;27;20032;-85
2023/08/05 05:32:10;;;;;;;5.88;3.10;;;14.80;99.90;;;;;;5097570;27;20474;-85
2023/08/05 05:34:35;;;;;;;8.35;3.00;;;14.90;99.90;;;;;;5096720;27;20036;-85
2023/08/05 05:37:01;;;;;;;6.68;3.00;;;14.80;99.90;;;;;;5102734;27;20041;-85
2023/08/05 05:39:26;;;;;;;4.82;2.78;;;14.80;99.90;;;;;;5113169;27;20041;-85
2023/08/05 05:41:52;;;;;;;7.97;3.42;;;14.80;99.90;;;;;;5134255;27;20096;-85
2023/08/05 05:44:18;;;;;;;8.95;2.75;;;14.80;99.90;;;;;;5128294;27;20133;-85
2023/08/05 05:46:44;;;;;;;7.60;3.47;;;14.70;99.90;;;;;;5103844;27;20030;-85
2023/08/05 05:49:10;;;;;;;6.78;3.13;;;14.80;99.90;;;;;;5112425;27;20035;-85
2023/08/05 05:51:36;;;;;;;10.13;3.50;;;14.80;99.90;;;;;;5115512;27;20066;-85
2023/08/05 05:54:02;;;;;;;6.63;2.83;;;15.00;99.90;;;;;;5099155;27;20039;-85
2023/08/05 05:56:28;;;;;;;6.28;2.60;;;14.70;99.90;;;;;;5131773;27;20039;-85
2023/08/05 05:58:54;;;;;;;6.78;2.45;;;14.70;99.90;;;;;;5113432;27;20052;-85
2023/08/05 06:01:20;;;;;;;6.85;2.92;;;14.70;99.90;;;;;;5117772;27;20130;-86
2023/08/05 06:03:46;;;;;;;4.90;2.55;;;15.00;99.90;;;;;;5112509;27;20055;-86
2023/08/05 06:06:12;;;;;;;4.80;2.13;;;14.70;99.90;;;;;;5130635;27;20100;-86
2023/08/05 06:08:38;;;;;;;6.40;2.58;;;14.70;99.90;;;;;;5130987;27;20070;-86
2023/08/05 06:11:04;;;;;;;6.65;2.40;;;14.70;99.90;;;;;;5134159;27;20046;-86
2023/08/05 06:13:30;;;;;;;5.85;2.67;;;14.80;99.90;;;;;;5103140;27;20035;-86
2023/08/05 06:15:56;;;;;;;6.93;3.00;;;14.80;99.90;;;;;;5130089;27;20031;-86
2023/08/05 06:18:22;;;;;;;7.05;2.90;;;14.80;99.90;;;;;;5122868;27;20473;-86
2023/08/05 06:20:48;;;;;;;7.72;2.80;;;14.80;99.90;;;;;;5138279;27;20142;-85
2023/08/05 06:23:14;;;;;;;8.40;2.63;;;14.90;99.90;;;;;;5113039;27;20038;-86
2023/08/05 06:25:40;;;;;;;6.93;2.97;;;14.90;99.90;;;;;;5117669;27;20034;-86
2023/08/05 06:28:06;;;;;;;5.97;2.47;;;15.00;99.90;;;;;;5112572;27;20038;-87
2023/08/05 06:30:32;;;;;;;7.18;2.80;;;15.00;99.90;;;;;;5117006;27;20099;-86
2023/08/05 06:32:57;;;;;;;6.85;2.40;;;15.00;99.90;;;;;;5094897;27;20043;-86
2023/08/05 06:35:23;;;;;;;6.93;2.40;;;15.10;99.90;;;;;;5112606;27;20040;-86
2023/08/05 06:37:49;;;;;;;7.10;2.05;;;15.10;99.90;;;;;;5131565;27;20572;-84
2023/08/05 06:40:15;;;;;;;5.57;2.40;;;15.10;99.90;;;;;;5126188;27;20039;-84
2023/08/05 06:42:41;;;;;;;5.60;2.58;;;15.20;99.90;;;;;;5101217;27;20042;-84
2023/08/05 06:45:08;;;;;;;5.88;2.42;;;15.20;99.90;;;;;;5094094;27;20546;-84
2023/08/05 06:47:35;;;;;;;15.15;3.55;;;15.20;99.90;;;;;;5111908;27;20031;-85
2023/08/05 06:50:04;;;;;;;6.40;2.53;;;15.20;99.90;;;;;;5122071;27;20183;-84
2023/08/05 06:52:30;;;;;;;5.95;2.75;;;15.30;99.90;;;;;;5118100;27;20119;-85
2023/08/05 06:54:57;;;;;;;6.40;2.20;;;15.30;99.90;;;;;;5100774;27;20088;-84
2023/08/05 06:57:23;;;;;;;8.65;2.70;;;15.60;99.90;;;;;;5095130;27;20123;-84
2023/08/05 06:59:49;;;;;;;9.55;2.40;;;15.50;99.90;;;;;;5115331;27;20070;-84
2023/08/05 07:02:14;;;;;;;5.43;2.25;;;15.60;99.90;;;;;;5100474;27;20513;-85
2023/08/05 07:04:40;;;;;;;8.80;2.30;;;15.70;99.90;;;;;;5115120;27;20046;-84
2023/08/05 07:07:06;;;;;;;8.40;2.45;;;15.80;99.90;;;;;;5111164;27;20077;-84
2023/08/05 07:09:32;;;;;;;10.55;2.30;;;15.90;99.90;;;;;;5110897;28;20043;-84
2023/08/05 07:11:57;;;;;;;8.13;1.90;;;16.00;99.90;;;;;;5131324;27;20102;-84
2023/08/05 07:14:23;;;;;;;3.90;2.05;;;16.10;99.90;;;;;;5132169;27;20374;-84
2023/08/05 07:16:49;;;;;;;6.55;2.17;;;16.20;99.90;;;;;;5132599;27;20067;-84
2023/08/05 07:19:15;;;;;;;6.38;2.20;;;16.30;99.90;;;;;;5154783;27;20037;-85
2023/08/05 07:21:40;;;;;;;8.10;2.22;;;16.30;99.90;;;;;;5133265;27;20646;-84
2023/08/05 07:24:06;;;;;;;6.50;2.00;;;16.40;99.90;;;;;;5133876;28;20053;-85
2023/08/05 07:26:31;;;;;;;5.80;2.22;;;16.40;99.90;;;;;;5139200;27;20042;-84
2023/08/05 07:28:57;;;;;;;7.10;2.10;;;16.50;99.90;;;;;;5120429;27;20385;-84
2023/08/05 07:31:23;;;;;;;6.22;2.33;;;16.50;99.90;;;;;;5129743;27;20042;-85
2023/08/05 07:33:49;;;;;;;7.15;2.30;;;16.50;99.90;;;;;;5139814;27;20077;-83
2023/08/05 07:36:22;;;;;;;5.05;2.10;;;16.50;99.90;;;;;;5117304;27;20050;-84
2023/08/05 07:38:47;;;;;;;9.10;2.38;;;16.60;99.90;;;;;;5115983;27;20058;-84
2023/08/05 07:41:15;;;;;;;7.43;2.30;;;16.60;99.90;;;;;;5118439;27;20039;-84
2023/08/05 07:43:42;;;;;;;5.70;2.03;;;16.60;99.90;;;;;;5121605;28;20039;-84
2023/08/05 07:46:11;;;;;;;7.88;2.38;;;16.60;99.90;;;;;;5134935;27;20537;-84
2023/08/05 07:48:39;;;;;;;6.65;2.38;;;16.70;99.90;;;;;;5134785;27;20043;-83
2023/08/05 07:51:08;;;;;;;6.10;2.08;;;16.80;99.90;;;;;;5121287;27;20078;-83
2023/08/05 07:53:35;;;;;;;4.60;1.98;;;17.00;99.90;;;;;;5116297;27;20047;-83
2023/08/05 07:56:11;;;;;;;5.25;1.88;;;17.10;99.90;;;;;;5118837;27;20042;-83
2023/08/05 07:58:42;;;;;;;9.05;2.83;;;17.20;99.90;;;;;;5098287;27;20035;-83
2023/08/05 08:01:08;;;;;;;8.35;2.30;;;17.20;99.90;;;;;;5138808;27;20106;-84
2023/08/05 08:03:34;;;;;;;9.60;2.40;;;17.30;99.90;;;;;;5111706;27;20060;-84
2023/08/05 08:06:00;;;;;;;6.32;2.00;;;17.20;99.90;;;;;;5116903;27;20118;-83
2023/08/05 08:08:26;;;;;;;7.60;2.08;;;17.30;99.90;;;;;;5113056;27;20115;-83
2023/08/05 08:10:52;;;;;;;6.03;1.90;;;17.40;99.90;;;;;;5120252;27;20108;-84
2023/08/05 08:13:18;;;;;;;9.80;2.20;;;17.50;99.90;;;;;;5111538;27;20063;-84
2023/08/05 08:15:43;;;;;;;5.82;2.10;;;17.60;99.90;;;;;;5112267;27;20047;-84
2023/08/05 08:18:09;;;;;;;8.05;2.25;;;17.60;99.90;;;;;;5112179;28;20088;-83
2023/08/05 08:20:35;;;;;;;6.32;2.17;;;17.60;99.90;;;;;;5116617;27;20039;-84
2023/08/05 08:23:00;;;;;;;4.38;1.83;;;17.60;99.90;;;;;;5118214;27;20062;-83
2023/08/05 08:25:26;;;;;;;8.32;2.17;;;17.70;99.90;;;;;;5112750;27;20130;-84
2023/08/05 08:27:51;;;;;;;6.95;2.40;;;17.70;99.90;;;;;;5125366;27;20043;-84
2023/08/05 08:30:17;;;;;;;4.68;2.00;;;17.80;99.90;;;;;;5117689;27;20484;-83
2023/08/05 08:32:43;;;;;;;6.88;1.85;;;17.80;99.90;;;;;;5114058;27;20374;-84
2023/08/05 08:35:08;;;;;;;5.63;2.10;;;17.90;99.90;;;;;;5112077;27;20067;-83
2023/08/05 08:37:34;;;;;;;5.40;1.92;;;17.70;99.90;;;;;;5112871;27;20034;-82
2023/08/05 08:40:00;;;;;;;4.80;2.15;;;17.80;99.90;;;;;;5112523;27;20115;-83
2023/08/05 08:42:26;;;;;;;6.05;2.17;;;17.80;99.90;;;;;;5112214;27;20088;-83
2023/08/05 08:44:53;;;;;;;4.40;1.67;;;17.80;99.90;;;;;;5111060;27;20032;-84
2023/08/05 08:47:20;;;;;;;5.35;2.08;;;17.80;99.90;;;;;;5111812;27;20085;-83
2023/08/05 08:49:52;;;;;;;5.63;2.38;;;17.90;99.90;;;;;;5093730;27;20032;-83
2023/08/05 08:52:18;;;;;;;4.80;2.00;;;17.90;99.90;;;;;;5115291;27;20035;-83
2023/08/05 08:54:44;;;;;;;5.00;2.35;;;18.00;99.90;;;;;;5109963;27;20036;-83
2023/08/05 08:57:13;;;;;;;4.70;2.05;;;18.00;99.90;;;;;;5118636;27;20459;-82
2023/08/05 08:59:39;;;;;;;4.40;1.85;;;18.10;99.90;;;;;;5109649;27;20040;-83
2023/08/05 09:02:20;;;;;;;4.63;1.75;;;18.30;99.90;;;;;;5109740;27;20069;-83
2023/08/05 09:04:47;;;;;;;5.78;2.00;;;18.50;99.90;;;;;;5098442;28;20167;-83
2023/08/05 09:07:13;;;;;;;4.88;1.77;;;18.70;99.90;;;;;;5112672;27;20084;-82
2023/08/05 09:09:38;;;;;;;3.47;1.60;;;18.70;99.90;;;;;;5111030;27;20028;-82
2023/08/05 09:12:04;;;;;;;4.13;1.85;;;18.70;99.90;;;;;;5123301;27;20039;-81
2023/08/05 09:14:30;;;;;;;4.60;1.92;;;18.70;99.90;;;;;;5112676;27;20071;-80
2023/08/05 09:16:59;;;;;;;6.60;1.98;;;18.70;99.90;;;;;;5114416;27;20319;-81
2023/08/05 09:19:26;;;;;;;4.63;1.60;;;18.70;99.90;;;;;;5101755;27;20067;-81
2023/08/05 09:21:55;;;;;;;4.93;1.70;;;18.70;99.90;;;;;;5109814;27;20043;-81
2023/08/05 09:24:25;;;;;;;5.05;2.10;;;18.80;99.90;;;;;;5112901;27;20043;-82
2023/08/05 09:26:58;;;;;;;3.15;1.52;;;19.00;99.90;;;;;;5128563;27;20122;-86
2023/08/05 09:29:26;;;;;;;3.27;1.53;;;19.20;99.90;;;;;;5117666;27;20035;-86
2023/08/05 09:32:03;;;;;;;4.53;1.52;;;19.30;99.90;;;;;;5093449;27;20039;-84
2023/08/05 09:34:32;;;;;;;3.70;1.30;;;19.40;99.90;;;;;;5099952;27;20332;-83
2023/08/05 09:36:59;;;;;;;4.80;1.63;;;19.60;99.90;;;;;;5120632;27;20104;-84
2023/08/05 09:39:25;;;;;;;4.70;1.60;;;19.60;99.90;;;;;;5120088;27;20075;-84
2023/08/05 09:41:54;;;;;;;3.15;1.40;;;19.60;99.90;;;;;;5119229;27;20072;-84
2023/08/05 09:44:20;;;;;;;3.83;1.73;;;19.90;99.90;;;;;;5119061;27;20108;-83
2023/08/05 09:46:46;;;;;;;4.30;1.50;;;20.10;99.90;;;;;;5117751;27;20070;-84
2023/08/05 09:49:14;;;;;;;4.38;1.40;;;20.10;99.90;;;;;;5122405;27;20039;-83
2023/08/05 09:51:42;;;;;;;3.90;1.27;;;20.00;99.90;;;;;;5100315;28;20042;-84
2023/08/05 09:54:12;;;;;;;3.67;1.40;;;20.00;99.90;;;;;;5117248;27;20035;-84
2023/08/05 09:56:40;;;;;;;3.88;1.55;;;20.00;99.90;;;;;;5113476;27;20478;-84
2023/08/05 09:59:07;;;;;;;2.50;1.30;;;19.90;99.90;;;;;;5109530;27;20085;-84
2023/08/05 10:01:36;;;;;;;2.70;1.30;;;20.00;99.90;;;;;;5114676;27;20032;-84
2023/08/05 10:04:02;;;;;;;6.63;1.65;;;20.00;99.90;;;;;;5131338;27;20582;-83
2023/08/05 10:06:29;;;;;;;3.30;1.40;;;20.00;99.90;;;;;;5113531;27;20410;-84
2023/08/05 10:08:56;;;;;;;5.03;1.48;;;20.00;99.90;;;;;;5118012;27;20088;-83
2023/08/05 10:11:24;;;;;;;5.18;1.63;;;20.00;99.90;;;;;;5115250;27;20049;-84
2023/08/05 10:13:53;;;;;;;3.20;1.30;;;20.00;99.90;;;;;;5138085;27;20067;-83
2023/08/05 10:16:19;;;;;;;4.03;1.23;;;19.90;99.90;;;;;;5139555;27;20110;-83
2023/08/05 10:18:46;;;;;;;3.50;1.65;;;19.90;99.90;;;;;;5130449;27;20482;-83
2023/08/05 10:21:12;;;;;;;3.30;1.35;;;19.90;99.90;;;;;;5135136;27;20042;-84
2023/08/05 10:23:37;;;;;;;5.75;1.98;;;20.00;99.90;;;;;;5135134;27;20186;-84
2023/08/05 10:26:06;;;;;;;3.47;1.50;;;20.00;99.90;;;;;;5134916;27;20042;-84
2023/08/05 10:28:34;;;;;;;3.80;1.42;;;20.10;99.90;;;;;;5140717;27;20431;-84
2023/08/05 10:31:05;;;;;;;4.40;1.50;;;20.20;99.90;;;;;;5115967;27;20458;-88
2023/08/05 10:33:30;;;;;;;5.15;2.10;;;20.40;99.90;;;;;;5126893;27;20038;-87
2023/08/05 10:36:06;;;;;;;6.00;2.00;;;20.60;99.90;;;;;;5118699;27;20043;-87
2023/08/05 10:38:42;;;;;;;4.40;1.70;;;20.70;99.90;;;;;;5133885;27;20034;-86
2023/08/05 10:41:10;;;;;;;5.82;2.17;;;20.80;99.90;;;;;;5143933;27;20087;-87
2023/08/05 10:43:40;;;;;;;3.45;1.73;;;20.90;99.90;;;;;;5131480;27;20066;-88
2023/08/05 10:46:06;;;;;;;4.05;1.60;;;21.00;99.90;;;;;;5123742;27;20042;-87
2023/08/05 10:48:44;;;;;;;5.30;1.90;;;21.20;99.90;;;;;;5125441;27;20045;-87
2023/08/05 10:51:13;;;;;;;3.55;1.50;;;21.40;99.90;;;;;;5138646;27;20031;-87
2023/08/05 10:54:04;;;;;;;4.00;1.50;;;21.50;99.90;;;;;;5116843;27;20053;-89
2023/08/05 10:56:34;;;;;;;4.18;1.55;;;21.50;99.90;;;;;;5115334;27;20066;-88
2023/08/05 10:59:01;;;;;;;5.38;1.88;;;21.40;99.90;;;;;;5115209;27;20051;-86
2023/08/05 11:01:56;;;;;;;5.13;1.50;;;21.50;99.90;;;;;;5136650;27;20035;-86
2023/08/05 11:04:26;;;;;;;;;;;21.50;99.90;;;;;;5102486;27;20051;-85
2023/08/05 11:06:52;;;;;;;4.63;2.08;;;21.50;99.90;;;;;;5120611;27;19923;-85
2023/08/05 11:09:19;;;;;;;3.75;1.33;;;21.60;99.90;;;;;;5119724;27;20490;-85
2023/08/05 11:11:48;;;;;;;3.47;1.40;;;21.60;99.90;;;;;;5122087;27;20043;-85
2023/08/05 11:14:16;;;;;;;3.72;1.80;;;21.50;99.90;;;;;;5099840;27;20480;-85
2023/08/05 11:16:45;;;;;;;4.88;1.83;;;21.40;99.90;;;;;;5127215;27;20043;-86
2023/08/05 11:19:12;;;;;;;4.22;1.75;;;21.40;99.90;;;;;;5120207;27;20042;-84
2023/08/05 11:21:38;;;;;;;2.92;1.60;;;21.50;99.90;;;;;;5117798;27;20134;-84
2023/08/05 11:24:04;;;;;;;6.43;1.60;;;21.50;99.90;;;;;;5131545;27;20072;-84
2023/08/05 11:26:30;;;;;;;3.00;1.60;;;21.50;99.90;;;;;;5122144;27;20046;-84
2023/08/05 11:29:00;;;;;;;3.85;1.40;;;21.50;99.90;;;;;;5134024;27;20109;-85
2023/08/05 11:31:26;;;;;;;3.53;1.55;;;21.60;99.90;;;;;;5109711;27;20117;-84
2023/08/05 11:33:54;;;;;;;4.05;1.50;;;21.60;99.90;;;;;;5128102;27;20042;-83
2023/08/05 11:36:26;;;;;;;5.85;1.58;;;21.70;99.90;;;;;;5128142;27;20043;-84
2023/08/05 11:38:57;;;;;;;4.72;1.70;;;21.70;99.90;;;;;;5139063;27;20070;-83
2023/08/05 11:41:26;;;;;;;2.75;1.48;;;21.80;99.90;;;;;;5125330;27;20038;-82
2023/08/05 11:43:52;;;;;;;4.30;1.55;;;21.80;99.90;;;;;;5128155;27;20061;-82
2023/08/05 11:46:29;;;;;;;2.83;1.27;;;21.90;99.90;;;;;;5116347;27;20031;-82
2023/08/05 11:49:11;;;;;;;3.10;1.60;;;22.00;99.90;;;;;;5122621;27;20042;-83
2023/08/05 11:52:10;;;;;;;3.13;1.40;;;22.00;99.90;;;;;;5127482;27;20050;-83
2023/08/05 11:54:36;;;;;;;4.32;1.55;;;22.00;99.90;;;;;;5083604;27;20043;-83
2023/08/05 11:57:20;;;;;;;2.60;1.48;;;21.80;99.90;;;;;;5119443;27;20369;-83
2023/08/05 11:59:47;;;;;;;5.93;1.80;;;21.80;99.90;;;;;;5114718;27;20035;-83
2023/08/05 12:02:15;;;;;;;4.32;1.70;;;21.60;99.90;;;;;;5115136;27;20074;-83
2023/08/05 12:04:47;;;;;;;4.88;1.70;;;21.50;99.90;;;;;;5138717;27;20549;-83
2023/08/05 12:07:14;;;;;;;3.58;1.73;;;21.50;99.90;;;;;;5103257;27;20050;-82
2023/08/05 12:09:40;;;;;;;5.63;2.03;;;21.40;99.90;;;;;;5115260;27;20031;-82
2023/08/05 12:12:13;;;;;;;4.35;2.10;;;21.40;99.90;;;;;;5115926;27;20130;-82
2023/08/05 12:14:40;;;;;;;4.45;1.98;;;21.60;99.90;;;;;;5125707;27;20578;-82
2023/08/05 12:17:06;;;;;;;4.55;2.40;;;21.60;99.90;;;;;;5113486;27;20035;-83
2023/08/05 12:19:31;;;;;;;7.13;2.33;;;21.60;99.90;;;;;;5138001;27;20058;-83
2023/08/05 12:21:57;;;;;;;5.90;2.90;;;21.50;99.90;;;;;;5132591;27;20031;-83
2023/08/05 12:24:22;;;;;;;4.95;2.65;;;21.40;99.90;;;;;;5114352;27;20035;-83
2023/08/05 12:26:48;;;;;;;5.60;3.17;;;21.40;99.90;;;;;;5118401;27;20512;-82
2023/08/05 12:29:13;;;;;;;5.63;3.28;;;21.40;99.90;;;;;;5132446;27;20058;-83
2023/08/05 12:31:40;;;;;;;5.55;3.10;;;21.30;99.90;;;;;;5132715;27;20043;-82
2023/08/05 12:34:06;;;;;;;7.38;3.95;;;21.30;99.90;;;;;;5126680;27;20147;-83
2023/08/05 12:36:32;;;;;;;9.18;3.40;;;21.30;99.90;;;;;;5139538;27;20050;-82
2023/08/05 12:38:58;;;;;;;6.53;3.85;;;21.30;99.90;;;;;;5128181;27;20044;-82
2023/08/05 12:41:23;;;;;;;6.57;4.20;;;21.30;99.90;;;;;;5113947;27;20039;-83
2023/08/05 12:43:49;;;;;;;6.85;3.65;;;21.30;99.90;;;;;;5114957;27;20046;-82